CES501 ZYHB-ZHHH
Flight info
| Callsign | CES501 |
|---|---|
| Flight time | N/A |
| Altitude | 32100 |
| Route | LEG08D LEGAG W204 RUSBO G212 VYK W37 PONUD PONUD5T |
| Aircraft | A320/M-SDE3FGHIRWY/LB1 |
Departure
| Time | 2026-04-27 13:02 |
|---|---|
| Airport | Harbin Taiping International Airport (ZYHB) |
Arrival
| Time | N/A |
|---|---|
| Airport | Wuhan Tianhe International Airport (ZHHH) |
| Time | Latitude | Longitude | Altitude | Speed | Heading |
|---|---|---|---|---|---|
| 2026-04-27 12:11 | 45.61812 | 126.23456 | 464 ft | 0 kts | 309° |
| 2026-04-27 12:50 | 45.61803 | 126.23473 | 462 ft | 4 kts | 308° |
| 2026-04-27 12:50 | 45.61787 | 126.23504 | 464 ft | 4 kts | 298° |
| 2026-04-27 12:50 | 45.61779 | 126.23537 | 464 ft | 4 kts | 255° |
| 2026-04-27 12:51 | 45.61783 | 126.23550 | 464 ft | 0 kts | 218° |
| 2026-04-27 12:55 | 45.61776 | 126.23542 | 462 ft | 2 kts | 218° |
| 2026-04-27 12:55 | 45.61759 | 126.23523 | 464 ft | 4 kts | 218° |
| 2026-04-27 12:55 | 45.61731 | 126.23504 | 464 ft | 5 kts | 193° |
| 2026-04-27 12:56 | 45.61692 | 126.23517 | 464 ft | 7 kts | 156° |
| 2026-04-27 12:56 | 45.61644 | 126.23547 | 464 ft | 8 kts | 155° |
| 2026-04-27 12:56 | 45.61593 | 126.23583 | 464 ft | 7 kts | 149° |
| 2026-04-27 12:56 | 45.61558 | 126.23634 | 463 ft | 7 kts | 130° |
| 2026-04-27 12:57 | 45.61529 | 126.23682 | 464 ft | 5 kts | 131° |
| 2026-04-27 12:57 | 45.61498 | 126.23700 | 462 ft | 6 kts | 177° |
| 2026-04-27 12:57 | 45.61460 | 126.23674 | 464 ft | 7 kts | 217° |
| 2026-04-27 12:57 | 45.61419 | 126.23628 | 465 ft | 8 kts | 220° |
| 2026-04-27 12:58 | 45.61372 | 126.23571 | 465 ft | 10 kts | 219° |
| 2026-04-27 12:58 | 45.61327 | 126.23524 | 463 ft | 7 kts | 206° |
| 2026-04-27 12:58 | 45.61275 | 126.23532 | 465 ft | 9 kts | 148° |
| 2026-04-27 12:58 | 45.61251 | 126.23597 | 465 ft | 8 kts | 95° |
| 2026-04-27 12:59 | 45.61255 | 126.23672 | 464 ft | 7 kts | 84° |
| 2026-04-27 12:59 | 45.61258 | 126.23730 | 465 ft | 3 kts | 80° |
| 2026-04-27 12:59 | 45.61270 | 126.23758 | 464 ft | 4 kts | 50° |
| 2026-04-27 12:59 | 45.61276 | 126.23768 | 466 ft | 0 kts | 43° |
| 2026-04-27 13:01 | 45.61372 | 126.23882 | 464 ft | 49 kts | 39° |
| 2026-04-27 13:01 | 45.61815 | 126.24400 | 458 ft | 110 kts | 39° |
| 2026-04-27 13:01 | 45.62530 | 126.25239 | 454 ft | 155 kts | 39° |
| 2026-04-27 13:01 | 45.63428 | 126.26242 | 817 ft | 165 kts | 37° |
| 2026-04-27 13:02 | 45.64387 | 126.27122 | 1365 ft | 169 kts | 21° |
| 2026-04-27 13:02 | 45.65541 | 126.27202 | 1939 ft | 173 kts | 340° |
| 2026-04-27 13:02 | 45.66598 | 126.26382 | 2548 ft | 172 kts | 334° |
| 2026-04-27 13:02 | 45.67667 | 126.25552 | 2960 ft | 184 kts | 335° |
| 2026-04-27 13:03 | 45.68886 | 126.24632 | 3010 ft | 208 kts | 335° |
| 2026-04-27 13:03 | 45.70225 | 126.23625 | 3002 ft | 224 kts | 335° |
| 2026-04-27 13:03 | 45.71640 | 126.22559 | 3175 ft | 237 kts | 335° |
| 2026-04-27 13:03 | 45.73093 | 126.21461 | 4106 ft | 234 kts | 334° |
| 2026-04-27 13:04 | 45.74478 | 126.20237 | 4993 ft | 237 kts | 320° |
| 2026-04-27 13:04 | 45.75476 | 126.18294 | 5588 ft | 256 kts | 295° |
| 2026-04-27 13:04 | 45.76066 | 126.15808 | 6210 ft | 268 kts | 291° |
| 2026-04-27 13:04 | 45.76644 | 126.13242 | 6974 ft | 273 kts | 290° |
| 2026-04-27 13:05 | 45.77233 | 126.10641 | 7763 ft | 276 kts | 290° |
| 2026-04-27 13:05 | 45.77834 | 126.08014 | 8541 ft | 280 kts | 291° |
| 2026-04-27 13:05 | 45.78442 | 126.05341 | 8836 ft | 283 kts | 288° |
| 2026-04-27 13:05 | 45.78749 | 126.02556 | 8903 ft | 285 kts | 274° |
| 2026-04-27 13:06 | 45.78566 | 125.99713 | 9014 ft | 290 kts | 260° |
| 2026-04-27 13:06 | 45.78168 | 125.96874 | 9837 ft | 291 kts | 261° |
| 2026-04-27 13:06 | 45.77780 | 125.93988 | 10312 ft | 305 kts | 261° |
| 2026-04-27 13:06 | 45.77375 | 125.90891 | 10473 ft | 328 kts | 261° |
| 2026-04-27 13:07 | 45.76950 | 125.87622 | 10645 ft | 347 kts | 261° |
| 2026-04-27 13:07 | 45.76499 | 125.84182 | 11172 ft | 355 kts | 261° |
| 2026-04-27 13:07 | 45.76035 | 125.80686 | 11788 ft | 359 kts | 261° |
| 2026-04-27 13:07 | 45.75562 | 125.77150 | 12411 ft | 363 kts | 261° |
| 2026-04-27 13:08 | 45.75080 | 125.73583 | 13034 ft | 367 kts | 261° |
| 2026-04-27 13:08 | 45.74592 | 125.69973 | 13654 ft | 371 kts | 261° |
| 2026-04-27 13:08 | 45.74098 | 125.66319 | 14220 ft | 375 kts | 261° |
| 2026-04-27 13:08 | 45.73413 | 125.62696 | 14766 ft | 381 kts | 250° |
| 2026-04-27 13:09 | 45.72159 | 125.59336 | 15301 ft | 386 kts | 236° |
| 2026-04-27 13:09 | 45.70371 | 125.56463 | 15846 ft | 390 kts | 221° |
| 2026-04-27 13:09 | 45.68132 | 125.54246 | 16383 ft | 394 kts | 207° |
| 2026-04-27 13:09 | 45.65579 | 125.52805 | 16940 ft | 397 kts | 197° |
| 2026-04-27 13:10 | 45.62935 | 125.51638 | 17494 ft | 400 kts | 197° |
| 2026-04-27 13:10 | 45.60268 | 125.50457 | 17727 ft | 402 kts | 197° |
| 2026-04-27 13:10 | 45.57602 | 125.49271 | 17768 ft | 402 kts | 197° |
| 2026-04-27 13:10 | 45.54930 | 125.48085 | 17768 ft | 402 kts | 197° |
| 2026-04-27 13:11 | 45.52262 | 125.46903 | 17772 ft | 402 kts | 197° |
| 2026-04-27 13:11 | 45.49578 | 125.45716 | 18274 ft | 405 kts | 197° |
| 2026-04-27 13:11 | 45.46878 | 125.44527 | 18838 ft | 407 kts | 197° |
| 2026-04-27 13:11 | 45.44206 | 125.43349 | 19385 ft | 409 kts | 197° |
| 2026-04-27 13:12 | 45.41483 | 125.42147 | 19954 ft | 411 kts | 197° |
| 2026-04-27 13:12 | 45.38747 | 125.40941 | 20510 ft | 413 kts | 198° |
| 2026-04-27 13:12 | 45.35998 | 125.39732 | 21034 ft | 414 kts | 198° |
| 2026-04-27 13:12 | 45.33236 | 125.38519 | 21537 ft | 416 kts | 198° |
| 2026-04-27 13:13 | 45.30462 | 125.37303 | 22008 ft | 418 kts | 198° |
| 2026-04-27 13:13 | 45.27676 | 125.36082 | 22476 ft | 420 kts | 198° |
| 2026-04-27 13:13 | 45.24878 | 125.34853 | 22931 ft | 422 kts | 198° |
| 2026-04-27 13:13 | 45.22067 | 125.33621 | 23383 ft | 424 kts | 198° |
| 2026-04-27 13:14 | 45.19245 | 125.32389 | 23784 ft | 426 kts | 198° |
| 2026-04-27 13:14 | 45.16404 | 125.31151 | 24148 ft | 427 kts | 198° |
| 2026-04-27 13:14 | 45.13553 | 125.29908 | 24507 ft | 429 kts | 198° |
| 2026-04-27 13:14 | 45.10688 | 125.28658 | 24859 ft | 430 kts | 198° |
| 2026-04-27 13:15 | 45.07838 | 125.27330 | 25215 ft | 431 kts | 203° |
| 2026-04-27 13:15 | 45.05161 | 125.25447 | 25557 ft | 431 kts | 213° |
| 2026-04-27 13:15 | 45.02747 | 125.22950 | 25911 ft | 430 kts | 223° |
| 2026-04-27 13:15 | 45.01328 | 125.21000 | 26152 ft | 430 kts | 229° |
| 2026-04-27 13:16 | 44.98937 | 125.16541 | 26614 ft | 430 kts | 236° |
| 2026-04-27 13:16 | 44.97226 | 125.13070 | 26968 ft | 432 kts | 236° |
| 2026-04-27 13:16 | 44.95504 | 125.09606 | 27442 ft | 430 kts | 236° |
| 2026-04-27 13:16 | 44.93787 | 125.06169 | 27970 ft | 427 kts | 235° |
| 2026-04-27 13:17 | 44.92079 | 125.02763 | 28551 ft | 423 kts | 235° |
| 2026-04-27 13:17 | 44.90935 | 125.00482 | 28931 ft | 421 kts | 235° |
| 2026-04-27 13:17 | 44.89277 | 124.97167 | 29476 ft | 418 kts | 235° |
| 2026-04-27 13:17 | 44.87046 | 124.92710 | 30217 ft | 414 kts | 235° |
| 2026-04-27 13:18 | 44.85390 | 124.89409 | 30630 ft | 412 kts | 235° |
| 2026-04-27 13:18 | 44.84291 | 124.87221 | 30870 ft | 413 kts | 235° |
| 2026-04-27 13:18 | 44.82633 | 124.83922 | 31204 ft | 413 kts | 235° |
| 2026-04-27 13:18 | 44.80970 | 124.80608 | 31545 ft | 414 kts | 235° |
| 2026-04-27 13:19 | 44.79303 | 124.77292 | 31861 ft | 416 kts | 234° |
| 2026-04-27 13:19 | 44.77628 | 124.73968 | 32121 ft | 418 kts | 234° |
| 2026-04-27 13:19 | 44.74202 | 124.67197 | 32178 ft | 431 kts | 234° |
| 2026-04-27 13:20 | 44.70694 | 124.60288 | 32178 ft | 435 kts | 234° |
| 2026-04-27 13:20 | 44.67174 | 124.53352 | 32180 ft | 436 kts | 234° |
| 2026-04-27 13:21 | 44.63647 | 124.46405 | 32181 ft | 437 kts | 234° |
| 2026-04-27 13:21 | 44.60133 | 124.39434 | 32183 ft | 438 kts | 238° |
| 2026-04-27 13:22 | 44.57756 | 124.31617 | 32189 ft | 438 kts | 256° |
| 2026-04-27 13:22 | 44.56929 | 124.23151 | 32188 ft | 438 kts | 263° |
| 2026-04-27 13:23 | 44.56018 | 124.14710 | 32192 ft | 438 kts | 253° |
| 2026-04-27 13:23 | 44.53482 | 124.06983 | 32196 ft | 437 kts | 236° |
| 2026-04-27 13:24 | 44.49906 | 124.00091 | 32192 ft | 438 kts | 234° |
| 2026-04-27 13:24 | 44.46327 | 123.93264 | 32188 ft | 438 kts | 234° |
| 2026-04-27 13:25 | 44.42744 | 123.86371 | 32199 ft | 438 kts | 234° |
| 2026-04-27 13:25 | 44.39177 | 123.79403 | 32205 ft | 437 kts | 234° |
| 2026-04-27 13:26 | 44.35650 | 123.72538 | 32204 ft | 437 kts | 234° |
| 2026-04-27 13:26 | 44.32089 | 123.65654 | 32212 ft | 437 kts | 234° |
| 2026-04-27 13:27 | 44.28521 | 123.58783 | 32213 ft | 437 kts | 234° |
| 2026-04-27 13:27 | 44.24946 | 123.51918 | 32206 ft | 437 kts | 234° |
| 2026-04-27 13:28 | 44.21375 | 123.45058 | 32213 ft | 437 kts | 234° |
| 2026-04-27 13:28 | 44.17789 | 123.38202 | 32208 ft | 438 kts | 234° |
| 2026-04-27 13:29 | 44.14203 | 123.31352 | 32209 ft | 438 kts | 234° |
| 2026-04-27 13:29 | 44.10610 | 123.24502 | 32208 ft | 438 kts | 234° |
| 2026-04-27 13:30 | 44.07014 | 123.17661 | 32210 ft | 438 kts | 234° |
| 2026-04-27 13:30 | 44.03405 | 123.10819 | 32212 ft | 438 kts | 234° |
| 2026-04-27 13:31 | 43.99796 | 123.04001 | 32215 ft | 438 kts | 234° |
| 2026-04-27 13:31 | 43.96179 | 122.97196 | 32215 ft | 438 kts | 234° |
| 2026-04-27 13:32 | 43.92571 | 122.90386 | 32218 ft | 438 kts | 234° |
| 2026-04-27 13:32 | 43.89043 | 122.83508 | 32222 ft | 437 kts | 235° |
| 2026-04-27 13:33 | 43.85542 | 122.76612 | 32219 ft | 437 kts | 235° |
| 2026-04-27 13:33 | 43.82043 | 122.69783 | 32212 ft | 437 kts | 235° |
| 2026-04-27 13:34 | 43.78507 | 122.62923 | 32219 ft | 437 kts | 235° |
| 2026-04-27 13:34 | 43.74973 | 122.56079 | 32217 ft | 437 kts | 235° |
| 2026-04-27 13:35 | 43.71428 | 122.49238 | 32216 ft | 437 kts | 235° |
| 2026-04-27 13:35 | 43.67876 | 122.42410 | 32212 ft | 438 kts | 235° |
| 2026-04-27 13:36 | 43.64322 | 122.35592 | 32218 ft | 438 kts | 235° |
| 2026-04-27 13:36 | 43.60761 | 122.28773 | 32211 ft | 438 kts | 235° |
| 2026-04-27 13:37 | 43.57194 | 122.21958 | 32209 ft | 438 kts | 235° |
| 2026-04-27 13:37 | 43.53636 | 122.15131 | 32209 ft | 438 kts | 235° |
| 2026-04-27 13:38 | 43.50104 | 122.08279 | 32204 ft | 439 kts | 236° |
| 2026-04-27 13:38 | 43.46561 | 122.01414 | 32199 ft | 440 kts | 236° |
| 2026-04-27 13:39 | 43.42997 | 121.94554 | 32203 ft | 441 kts | 236° |
| 2026-04-27 13:39 | 43.39447 | 121.87754 | 32204 ft | 441 kts | 236° |
| 2026-04-27 13:40 | 43.35875 | 121.80900 | 32213 ft | 441 kts | 236° |
| 2026-04-27 13:40 | 43.32296 | 121.74054 | 32220 ft | 441 kts | 236° |
| 2026-04-27 13:41 | 43.28717 | 121.67223 | 32223 ft | 440 kts | 236° |
| 2026-04-27 13:41 | 43.25134 | 121.60407 | 32229 ft | 440 kts | 236° |
| 2026-04-27 13:42 | 43.21546 | 121.53604 | 32231 ft | 440 kts | 236° |
| 2026-04-27 13:42 | 43.17957 | 121.46816 | 32239 ft | 439 kts | 236° |
| 2026-04-27 13:43 | 43.14369 | 121.40037 | 32243 ft | 439 kts | 236° |
| 2026-04-27 13:43 | 43.10790 | 121.33271 | 32248 ft | 438 kts | 236° |
| 2026-04-27 13:44 | 43.07204 | 121.26534 | 32245 ft | 438 kts | 236° |
| 2026-04-27 13:44 | 43.03613 | 121.19814 | 32248 ft | 437 kts | 236° |
| 2026-04-27 13:45 | 43.00025 | 121.13097 | 32255 ft | 437 kts | 236° |
| 2026-04-27 13:45 | 42.96444 | 121.06395 | 32258 ft | 436 kts | 236° |
| 2026-04-27 13:46 | 42.92865 | 120.99714 | 32263 ft | 436 kts | 236° |
| 2026-04-27 13:46 | 42.89276 | 120.93053 | 32265 ft | 435 kts | 236° |
| 2026-04-27 13:47 | 42.85714 | 120.86452 | 32266 ft | 435 kts | 236° |
| 2026-04-27 13:47 | 42.82130 | 120.79811 | 32265 ft | 435 kts | 236° |
| 2026-04-27 13:48 | 42.78540 | 120.73181 | 32267 ft | 435 kts | 236° |
| 2026-04-27 13:48 | 42.74950 | 120.66566 | 32262 ft | 435 kts | 236° |
| 2026-04-27 13:49 | 42.71353 | 120.59942 | 32259 ft | 435 kts | 236° |
| 2026-04-27 13:49 | 42.67756 | 120.53333 | 32260 ft | 435 kts | 236° |
| 2026-04-27 13:50 | 42.64153 | 120.46741 | 32267 ft | 434 kts | 236° |
| 2026-04-27 13:50 | 42.60548 | 120.40159 | 32275 ft | 434 kts | 236° |
| 2026-04-27 13:51 | 42.56942 | 120.33586 | 32277 ft | 434 kts | 236° |
| 2026-04-27 13:51 | 42.53365 | 120.27066 | 32280 ft | 433 kts | 237° |
| 2026-04-27 13:52 | 42.49762 | 120.20515 | 32288 ft | 433 kts | 237° |
| 2026-04-27 13:52 | 42.46155 | 120.13992 | 32295 ft | 432 kts | 237° |
| 2026-04-27 13:53 | 42.40744 | 120.04230 | 32294 ft | 431 kts | 237° |
| 2026-04-27 13:54 | 42.37146 | 119.97743 | 32303 ft | 431 kts | 237° |
| 2026-04-27 13:54 | 42.33546 | 119.91277 | 32304 ft | 430 kts | 237° |
| 2026-04-27 13:55 | 42.29946 | 119.84828 | 32303 ft | 430 kts | 237° |
| 2026-04-27 13:55 | 42.26349 | 119.78396 | 32312 ft | 428 kts | 237° |
| 2026-04-27 13:56 | 42.22785 | 119.72026 | 32318 ft | 427 kts | 237° |
| 2026-04-27 13:56 | 42.19203 | 119.65632 | 32311 ft | 427 kts | 238° |
| 2026-04-27 13:57 | 42.15622 | 119.59249 | 32296 ft | 426 kts | 238° |
| 2026-04-27 13:57 | 42.12044 | 119.52892 | 32310 ft | 425 kts | 238° |
| 2026-04-27 13:58 | 42.08464 | 119.46561 | 32319 ft | 424 kts | 238° |
| 2026-04-27 13:58 | 42.04889 | 119.40243 | 32319 ft | 424 kts | 238° |
| 2026-04-27 13:59 | 42.01306 | 119.33938 | 32306 ft | 424 kts | 238° |
| 2026-04-27 13:59 | 41.97731 | 119.27651 | 32320 ft | 422 kts | 238° |
| 2026-04-27 14:00 | 41.94162 | 119.21390 | 32321 ft | 422 kts | 238° |
| 2026-04-27 14:00 | 41.90598 | 119.15141 | 32321 ft | 421 kts | 238° |
| 2026-04-27 14:01 | 41.87060 | 119.08947 | 32309 ft | 420 kts | 239° |
| 2026-04-27 14:01 | 41.83505 | 119.02733 | 32317 ft | 420 kts | 239° |
| 2026-04-27 14:02 | 41.79940 | 118.96537 | 32319 ft | 419 kts | 238° |
| 2026-04-27 14:02 | 41.76381 | 118.90352 | 32300 ft | 418 kts | 239° |
| 2026-04-27 14:03 | 41.72832 | 118.84173 | 32317 ft | 417 kts | 239° |
| 2026-04-27 14:03 | 41.69884 | 118.79062 | 32322 ft | 417 kts | 239° |
| 2026-04-27 14:04 | 41.66324 | 118.72933 | 32321 ft | 416 kts | 239° |
| 2026-04-27 14:04 | 41.62778 | 118.66821 | 32291 ft | 416 kts | 239° |
| 2026-04-27 14:05 | 41.59240 | 118.60712 | 32305 ft | 415 kts | 239° |
| 2026-04-27 14:05 | 41.55702 | 118.54633 | 32307 ft | 415 kts | 239° |
| 2026-04-27 14:06 | 41.52153 | 118.48555 | 32310 ft | 415 kts | 239° |
| 2026-04-27 14:06 | 41.48787 | 118.42352 | 32309 ft | 409 kts | 245° |
| 2026-04-27 14:07 | 41.45829 | 118.35873 | 32304 ft | 409 kts | 245° |
| 2026-04-27 14:07 | 41.42863 | 118.29405 | 32298 ft | 409 kts | 245° |
| 2026-04-27 14:08 | 41.39890 | 118.22939 | 32312 ft | 409 kts | 245° |
| 2026-04-27 14:08 | 41.36915 | 118.16483 | 32285 ft | 408 kts | 245° |
| 2026-04-27 14:09 | 41.33962 | 118.10102 | 32301 ft | 407 kts | 245° |
| 2026-04-27 14:09 | 41.30994 | 118.03695 | 32299 ft | 407 kts | 245° |
| 2026-04-27 14:10 | 41.28024 | 117.97290 | 32290 ft | 407 kts | 245° |
| 2026-04-27 14:10 | 41.25059 | 117.90900 | 32277 ft | 405 kts | 245° |
| 2026-04-27 14:11 | 41.22103 | 117.84541 | 32284 ft | 403 kts | 245° |
| 2026-04-27 14:11 | 41.19145 | 117.78216 | 32283 ft | 403 kts | 245° |
| 2026-04-27 14:12 | 41.16184 | 117.71905 | 32287 ft | 403 kts | 245° |
| 2026-04-27 14:12 | 41.13229 | 117.65605 | 32259 ft | 401 kts | 245° |
| 2026-04-27 14:13 | 41.10299 | 117.59354 | 32293 ft | 398 kts | 245° |
| 2026-04-27 14:13 | 41.07378 | 117.53136 | 32287 ft | 397 kts | 245° |
| 2026-04-27 14:14 | 41.04238 | 117.47102 | 32288 ft | 406 kts | 235° |
| 2026-04-27 14:14 | 41.02111 | 117.44573 | 32274 ft | 418 kts | 225° |
| 2026-04-27 14:14 | 40.99575 | 117.42578 | 32226 ft | 432 kts | 215° |
| 2026-04-27 14:15 | 40.93913 | 117.39659 | 32235 ft | 437 kts | 211° |
| 2026-04-27 14:15 | 40.88271 | 117.36784 | 32246 ft | 437 kts | 212° |
| 2026-04-27 14:16 | 40.82596 | 117.33886 | 32213 ft | 437 kts | 212° |
| 2026-04-27 14:16 | 40.76930 | 117.31004 | 32226 ft | 436 kts | 212° |
| 2026-04-27 14:17 | 40.71267 | 117.28132 | 32241 ft | 437 kts | 212° |
| 2026-04-27 14:17 | 40.65555 | 117.25351 | 32210 ft | 437 kts | 212° |
| 2026-04-27 14:18 | 40.59814 | 117.22684 | 32219 ft | 437 kts | 211° |
| 2026-04-27 14:18 | 40.54081 | 117.20024 | 32224 ft | 437 kts | 212° |
| 2026-04-27 14:19 | 40.48361 | 117.17325 | 32190 ft | 437 kts | 212° |
| 2026-04-27 14:19 | 40.42647 | 117.14623 | 32199 ft | 436 kts | 212° |
| 2026-04-27 14:20 | 40.36926 | 117.11938 | 32215 ft | 436 kts | 212° |
| 2026-04-27 14:20 | 40.31209 | 117.09262 | 32168 ft | 435 kts | 212° |
| 2026-04-27 14:21 | 40.25563 | 117.06617 | 32215 ft | 433 kts | 212° |
| 2026-04-27 14:21 | 40.19892 | 117.03967 | 32220 ft | 432 kts | 212° |
| 2026-04-27 14:22 | 40.14227 | 117.01324 | 32161 ft | 431 kts | 212° |
| 2026-04-27 14:22 | 40.08606 | 116.98715 | 32196 ft | 427 kts | 213° |
| 2026-04-27 14:23 | 40.03010 | 116.96118 | 32220 ft | 426 kts | 213° |
| 2026-04-27 14:23 | 39.97423 | 116.93524 | 32216 ft | 426 kts | 213° |
| 2026-04-27 14:24 | 39.91839 | 116.90943 | 32212 ft | 426 kts | 213° |
| 2026-04-27 14:24 | 39.86257 | 116.88365 | 32216 ft | 426 kts | 213° |
| 2026-04-27 14:25 | 39.80674 | 116.85783 | 32239 ft | 426 kts | 212° |
| 2026-04-27 14:25 | 39.75093 | 116.83188 | 32179 ft | 425 kts | 213° |
| 2026-04-27 14:26 | 39.69541 | 116.80556 | 32205 ft | 424 kts | 213° |
| 2026-04-27 14:26 | 39.63998 | 116.77933 | 32219 ft | 424 kts | 213° |
| 2026-04-27 14:27 | 39.58455 | 116.75322 | 32194 ft | 423 kts | 213° |
| 2026-04-27 14:27 | 39.52918 | 116.72726 | 32215 ft | 423 kts | 213° |
| 2026-04-27 14:28 | 39.47388 | 116.70149 | 32226 ft | 422 kts | 213° |
| 2026-04-27 14:28 | 39.41859 | 116.67572 | 32176 ft | 422 kts | 213° |
| 2026-04-27 14:29 | 39.36356 | 116.65009 | 32198 ft | 420 kts | 213° |
| 2026-04-27 14:29 | 39.30898 | 116.62462 | 32207 ft | 419 kts | 213° |
| 2026-04-27 14:30 | 39.25413 | 116.59903 | 32214 ft | 419 kts | 213° |
| 2026-04-27 14:30 | 39.19995 | 116.57255 | 32192 ft | 408 kts | 219° |
| 2026-04-27 14:30 | 39.17579 | 116.55464 | 32220 ft | 394 kts | 227° |
| 2026-04-27 14:31 | 39.15340 | 116.53445 | 32228 ft | 393 kts | 227° |
| 2026-04-27 14:31 | 39.10859 | 116.49403 | 32221 ft | 393 kts | 227° |
| 2026-04-27 14:32 | 39.06366 | 116.45377 | 32137 ft | 393 kts | 227° |
| 2026-04-27 14:32 | 39.01877 | 116.41374 | 32205 ft | 392 kts | 227° |
| 2026-04-27 14:33 | 38.97393 | 116.37378 | 32212 ft | 391 kts | 227° |
| 2026-04-27 14:33 | 38.92917 | 116.33384 | 32211 ft | 391 kts | 227° |
| 2026-04-27 14:34 | 38.88445 | 116.29402 | 32172 ft | 390 kts | 227° |
| 2026-04-27 14:34 | 38.83985 | 116.25433 | 32207 ft | 390 kts | 227° |
| 2026-04-27 14:35 | 38.79525 | 116.21474 | 32207 ft | 390 kts | 227° |
| 2026-04-27 14:35 | 38.75058 | 116.17518 | 32203 ft | 390 kts | 227° |
| 2026-04-27 14:36 | 38.70614 | 116.13596 | 32165 ft | 390 kts | 226° |
| 2026-04-27 14:36 | 38.66120 | 116.09695 | 32179 ft | 395 kts | 223° |
| 2026-04-27 14:36 | 38.63594 | 116.08143 | 32184 ft | 411 kts | 214° |
| 2026-04-27 14:37 | 38.60911 | 116.06855 | 32188 ft | 412 kts | 214° |
| 2026-04-27 14:37 | 38.55533 | 116.04308 | 32192 ft | 412 kts | 214° |
| 2026-04-27 14:38 | 38.50174 | 116.01774 | 32189 ft | 409 kts | 214° |
| 2026-04-27 14:38 | 38.44847 | 115.99239 | 32208 ft | 408 kts | 214° |
| 2026-04-27 14:39 | 38.39535 | 115.96706 | 32206 ft | 407 kts | 214° |
| 2026-04-27 14:39 | 38.34228 | 115.94172 | 32151 ft | 407 kts | 214° |
| 2026-04-27 14:40 | 38.28938 | 115.91718 | 32186 ft | 412 kts | 210° |
| 2026-04-27 14:40 | 38.26079 | 115.90953 | 32194 ft | 429 kts | 201° |
| 2026-04-27 14:40 | 38.23111 | 115.90488 | 32199 ft | 429 kts | 201° |
| 2026-04-27 14:41 | 38.17178 | 115.89573 | 32203 ft | 429 kts | 201° |
| 2026-04-27 14:41 | 38.11259 | 115.88654 | 32202 ft | 428 kts | 201° |
| 2026-04-27 14:42 | 38.05344 | 115.87725 | 32198 ft | 428 kts | 201° |
| 2026-04-27 14:42 | 37.99432 | 115.86800 | 32198 ft | 428 kts | 201° |
| 2026-04-27 14:43 | 37.93516 | 115.85882 | 32157 ft | 427 kts | 201° |
| 2026-04-27 14:43 | 37.87614 | 115.84960 | 32181 ft | 427 kts | 201° |
| 2026-04-27 14:44 | 37.81727 | 115.83994 | 32189 ft | 426 kts | 201° |
| 2026-04-27 14:44 | 37.75852 | 115.83017 | 32193 ft | 426 kts | 201° |
| 2026-04-27 14:45 | 37.70210 | 115.81414 | 32152 ft | 403 kts | 214° |
| 2026-04-27 14:45 | 37.65155 | 115.78555 | 32164 ft | 398 kts | 217° |
| 2026-04-27 14:46 | 37.60108 | 115.75675 | 32175 ft | 398 kts | 217° |
| 2026-04-27 14:46 | 37.55088 | 115.72820 | 32157 ft | 398 kts | 217° |
| 2026-04-27 14:47 | 37.50017 | 115.69936 | 32169 ft | 400 kts | 216° |
| 2026-04-27 14:47 | 37.45795 | 115.67541 | 32173 ft | 400 kts | 216° |
| 2026-04-27 14:48 | 37.39876 | 115.64148 | 32180 ft | 399 kts | 217° |
| 2026-04-27 14:48 | 37.33225 | 115.60140 | 32163 ft | 398 kts | 217° |
| 2026-04-27 14:49 | 37.28223 | 115.57135 | 32169 ft | 399 kts | 217° |
| 2026-04-27 14:49 | 37.23201 | 115.54147 | 32183 ft | 399 kts | 217° |
| 2026-04-27 14:50 | 37.18176 | 115.51165 | 32174 ft | 400 kts | 217° |
| 2026-04-27 14:50 | 37.13136 | 115.48179 | 32170 ft | 402 kts | 216° |
| 2026-04-27 14:51 | 37.08066 | 115.45181 | 32180 ft | 403 kts | 216° |
| 2026-04-27 14:51 | 37.02990 | 115.42192 | 32189 ft | 403 kts | 216° |
| 2026-04-27 14:52 | 36.97917 | 115.39197 | 32184 ft | 403 kts | 216° |
| 2026-04-27 14:52 | 36.92853 | 115.36199 | 32169 ft | 403 kts | 216° |
| 2026-04-27 14:53 | 36.87780 | 115.33220 | 32177 ft | 403 kts | 216° |
| 2026-04-27 14:53 | 36.82704 | 115.30245 | 32176 ft | 403 kts | 216° |
| 2026-04-27 14:54 | 36.77666 | 115.27286 | 32139 ft | 403 kts | 216° |
| 2026-04-27 14:54 | 36.72588 | 115.24305 | 32153 ft | 403 kts | 216° |
| 2026-04-27 14:55 | 36.67502 | 115.21332 | 32169 ft | 403 kts | 216° |
| 2026-04-27 14:55 | 36.62422 | 115.18355 | 32177 ft | 403 kts | 216° |
| 2026-04-27 14:56 | 36.57334 | 115.15389 | 32145 ft | 404 kts | 216° |
| 2026-04-27 14:56 | 36.52226 | 115.12413 | 32174 ft | 406 kts | 216° |
| 2026-04-27 14:57 | 36.47107 | 115.09433 | 32184 ft | 406 kts | 215° |
| 2026-04-27 14:57 | 36.41984 | 115.06469 | 32182 ft | 406 kts | 215° |
| 2026-04-27 14:58 | 36.36813 | 115.03587 | 32159 ft | 414 kts | 210° |
| 2026-04-27 14:58 | 36.33984 | 115.02664 | 32163 ft | 428 kts | 200° |
| 2026-04-27 14:58 | 36.30984 | 115.02273 | 32168 ft | 436 kts | 196° |
| 2026-04-27 14:59 | 36.24921 | 115.01665 | 32177 ft | 437 kts | 196° |
| 2026-04-27 14:59 | 36.18848 | 115.01055 | 32187 ft | 438 kts | 196° |
| 2026-04-27 15:00 | 36.12809 | 115.00443 | 32192 ft | 438 kts | 196° |
| 2026-04-27 15:00 | 36.06727 | 114.99824 | 32197 ft | 438 kts | 196° |
| 2026-04-27 15:01 | 36.00655 | 114.99202 | 32200 ft | 438 kts | 196° |
| 2026-04-27 15:01 | 35.94587 | 114.98580 | 32167 ft | 438 kts | 196° |
| 2026-04-27 15:02 | 35.88497 | 114.97962 | 32176 ft | 439 kts | 196° |
| 2026-04-27 15:02 | 35.82399 | 114.97344 | 32183 ft | 440 kts | 196° |
| 2026-04-27 15:03 | 35.76288 | 114.96726 | 32188 ft | 441 kts | 196° |
| 2026-04-27 15:03 | 35.70172 | 114.96106 | 32182 ft | 442 kts | 195° |
| 2026-04-27 15:04 | 35.64033 | 114.95492 | 32193 ft | 443 kts | 195° |
| 2026-04-27 15:04 | 35.57928 | 114.94876 | 32199 ft | 443 kts | 195° |
| 2026-04-27 15:05 | 35.51783 | 114.94250 | 32200 ft | 443 kts | 195° |
| 2026-04-27 15:05 | 35.45641 | 114.93633 | 32176 ft | 443 kts | 195° |
| 2026-04-27 15:06 | 35.39495 | 114.93017 | 32189 ft | 443 kts | 195° |
| 2026-04-27 15:06 | 35.33357 | 114.92400 | 32197 ft | 443 kts | 195° |
| 2026-04-27 15:07 | 35.27207 | 114.91782 | 32167 ft | 443 kts | 194° |
| 2026-04-27 15:07 | 35.21052 | 114.91169 | 32175 ft | 444 kts | 194° |
| 2026-04-27 15:08 | 35.14879 | 114.90553 | 32180 ft | 445 kts | 194° |
| 2026-04-27 15:08 | 35.08694 | 114.89936 | 32184 ft | 446 kts | 194° |
| 2026-04-27 15:09 | 35.03112 | 114.89381 | 32163 ft | 447 kts | 194° |
| 2026-04-27 15:09 | 34.98280 | 114.88901 | 32163 ft | 449 kts | 194° |
| 2026-04-27 15:10 | 34.92046 | 114.88282 | 32178 ft | 450 kts | 194° |
| 2026-04-27 15:10 | 34.85811 | 114.87664 | 32181 ft | 450 kts | 194° |
| 2026-04-27 15:11 | 34.79571 | 114.87050 | 32168 ft | 449 kts | 194° |
| 2026-04-27 15:11 | 34.73382 | 114.86441 | 32187 ft | 449 kts | 194° |
| 2026-04-27 15:12 | 34.67160 | 114.85824 | 32194 ft | 448 kts | 194° |
| 2026-04-27 15:12 | 34.60946 | 114.85211 | 32208 ft | 448 kts | 194° |
| 2026-04-27 15:13 | 34.57383 | 114.84863 | 32166 ft | 448 kts | 193° |
| 2026-04-27 15:13 | 34.51282 | 114.84269 | 32184 ft | 447 kts | 194° |
| 2026-04-27 15:14 | 34.45100 | 114.83660 | 32186 ft | 446 kts | 194° |
| 2026-04-27 15:14 | 34.38909 | 114.83053 | 32190 ft | 446 kts | 194° |
| 2026-04-27 15:15 | 34.32717 | 114.82452 | 32167 ft | 446 kts | 193° |
| 2026-04-27 15:15 | 34.26537 | 114.81851 | 32177 ft | 445 kts | 193° |
| 2026-04-27 15:16 | 34.20398 | 114.81256 | 32178 ft | 445 kts | 193° |
| 2026-04-27 15:16 | 34.14222 | 114.80654 | 32181 ft | 445 kts | 193° |
| 2026-04-27 15:17 | 34.08053 | 114.80051 | 32151 ft | 445 kts | 193° |
| 2026-04-27 15:17 | 34.01882 | 114.79455 | 32158 ft | 445 kts | 193° |
| 2026-04-27 15:18 | 33.95716 | 114.78869 | 32168 ft | 445 kts | 193° |
| 2026-04-27 15:18 | 33.89546 | 114.78284 | 32166 ft | 445 kts | 193° |
| 2026-04-27 15:19 | 33.83416 | 114.77695 | 32164 ft | 445 kts | 193° |
| 2026-04-27 15:19 | 33.77245 | 114.77086 | 32166 ft | 444 kts | 193° |
| 2026-04-27 15:20 | 33.71083 | 114.76462 | 32171 ft | 444 kts | 193° |
| 2026-04-27 15:20 | 33.64919 | 114.75862 | 32145 ft | 445 kts | 193° |
| 2026-04-27 15:21 | 33.58747 | 114.75301 | 32152 ft | 445 kts | 193° |
| 2026-04-27 15:21 | 33.52583 | 114.74700 | 32158 ft | 444 kts | 193° |
| 2026-04-27 15:22 | 33.46432 | 114.74052 | 32158 ft | 444 kts | 193° |
| 2026-04-27 15:22 | 33.40273 | 114.73433 | 32132 ft | 444 kts | 192° |
| 2026-04-27 15:23 | 33.34108 | 114.72850 | 32136 ft | 444 kts | 192° |
| 2026-04-27 15:23 | 33.27942 | 114.72266 | 32144 ft | 444 kts | 192° |
| 2026-04-27 15:24 | 33.21780 | 114.71673 | 32151 ft | 444 kts | 192° |
| 2026-04-27 15:24 | 33.15617 | 114.71070 | 32129 ft | 444 kts | 192° |
| 2026-04-27 15:25 | 33.09455 | 114.70455 | 32143 ft | 444 kts | 192° |
| 2026-04-27 15:25 | 33.03298 | 114.69844 | 32142 ft | 444 kts | 192° |
| 2026-04-27 15:26 | 32.97182 | 114.69246 | 32143 ft | 444 kts | 192° |
| 2026-04-27 15:26 | 32.91028 | 114.68640 | 32128 ft | 443 kts | 192° |
| 2026-04-27 15:27 | 32.84880 | 114.68040 | 32140 ft | 443 kts | 192° |
| 2026-04-27 15:27 | 32.78735 | 114.67458 | 32143 ft | 443 kts | 192° |
| 2026-04-27 15:28 | 32.72587 | 114.66883 | 32146 ft | 443 kts | 192° |
| 2026-04-27 15:28 | 32.66438 | 114.66305 | 32128 ft | 443 kts | 192° |
| 2026-04-27 15:29 | 32.60284 | 114.65720 | 32128 ft | 444 kts | 192° |
| 2026-04-27 15:29 | 32.54117 | 114.65136 | 31682 ft | 445 kts | 191° |
| 2026-04-27 15:30 | 32.51030 | 114.64849 | 31170 ft | 445 kts | 191° |
| 2026-04-27 15:30 | 32.47979 | 114.64567 | 30677 ft | 445 kts | 191° |
| 2026-04-27 15:30 | 32.44885 | 114.64279 | 30168 ft | 447 kts | 191° |
| 2026-04-27 15:30 | 32.41769 | 114.63985 | 29607 ft | 449 kts | 191° |
| 2026-04-27 15:31 | 32.38646 | 114.63691 | 29058 ft | 450 kts | 191° |
| 2026-04-27 15:31 | 32.35536 | 114.63398 | 28559 ft | 447 kts | 191° |
| 2026-04-27 15:31 | 32.32443 | 114.63102 | 28068 ft | 444 kts | 191° |
| 2026-04-27 15:31 | 32.29373 | 114.62803 | 27586 ft | 441 kts | 191° |
| 2026-04-27 15:32 | 32.26325 | 114.62503 | 27112 ft | 438 kts | 191° |
| 2026-04-27 15:32 | 32.23298 | 114.62207 | 26648 ft | 435 kts | 191° |
| 2026-04-27 15:32 | 32.20292 | 114.61913 | 26170 ft | 432 kts | 191° |
| 2026-04-27 15:32 | 32.17306 | 114.61621 | 25721 ft | 430 kts | 191° |
| 2026-04-27 15:33 | 32.15331 | 114.61428 | 25424 ft | 428 kts | 190° |
| 2026-04-27 15:33 | 32.11374 | 114.61043 | 24834 ft | 425 kts | 190° |
| 2026-04-27 15:33 | 32.08432 | 114.60759 | 24408 ft | 423 kts | 190° |
| 2026-04-27 15:33 | 32.05508 | 114.60478 | 23982 ft | 420 kts | 190° |
| 2026-04-27 15:34 | 32.03580 | 114.60295 | 23698 ft | 419 kts | 190° |
| 2026-04-27 15:34 | 32.00686 | 114.60016 | 23215 ft | 416 kts | 190° |
| 2026-04-27 15:34 | 31.97812 | 114.59733 | 22703 ft | 412 kts | 190° |
| 2026-04-27 15:34 | 31.94968 | 114.59452 | 22216 ft | 409 kts | 190° |
| 2026-04-27 15:35 | 31.92147 | 114.59176 | 21732 ft | 405 kts | 190° |
| 2026-04-27 15:35 | 31.89350 | 114.58908 | 21262 ft | 401 kts | 189° |
| 2026-04-27 15:35 | 31.86580 | 114.58646 | 20800 ft | 397 kts | 189° |
| 2026-04-27 15:35 | 31.82916 | 114.58298 | 20191 ft | 393 kts | 189° |
| 2026-04-27 15:36 | 31.81114 | 114.58126 | 19888 ft | 390 kts | 189° |
| 2026-04-27 15:36 | 31.78416 | 114.57868 | 19444 ft | 387 kts | 189° |
| 2026-04-27 15:36 | 31.75746 | 114.57611 | 19009 ft | 383 kts | 189° |
| 2026-04-27 15:36 | 31.73104 | 114.57355 | 18563 ft | 380 kts | 189° |
| 2026-04-27 15:37 | 31.70471 | 114.57100 | 18108 ft | 379 kts | 189° |
| 2026-04-27 15:37 | 31.67848 | 114.56848 | 17616 ft | 377 kts | 188° |
| 2026-04-27 15:37 | 31.65247 | 114.56598 | 17133 ft | 374 kts | 188° |
| 2026-04-27 15:37 | 31.62658 | 114.56349 | 16640 ft | 371 kts | 188° |
| 2026-04-27 15:38 | 31.60092 | 114.56101 | 16171 ft | 369 kts | 188° |
| 2026-04-27 15:38 | 31.57576 | 114.55858 | 15720 ft | 366 kts | 188° |
| 2026-04-27 15:38 | 31.55040 | 114.55613 | 15260 ft | 364 kts | 187° |
| 2026-04-27 15:38 | 31.52534 | 114.55375 | 14845 ft | 358 kts | 187° |
| 2026-04-27 15:39 | 31.50091 | 114.55144 | 14614 ft | 347 kts | 187° |
| 2026-04-27 15:39 | 31.47725 | 114.54917 | 14383 ft | 337 kts | 187° |
| 2026-04-27 15:39 | 31.45419 | 114.54695 | 14148 ft | 328 kts | 187° |
| 2026-04-27 15:39 | 31.43171 | 114.54479 | 13911 ft | 320 kts | 187° |
| 2026-04-27 15:40 | 31.40978 | 114.54269 | 13660 ft | 313 kts | 187° |
| 2026-04-27 15:40 | 31.38827 | 114.54065 | 13413 ft | 306 kts | 187° |
| 2026-04-27 15:40 | 31.36719 | 114.53866 | 13149 ft | 300 kts | 187° |
| 2026-04-27 15:40 | 31.34658 | 114.53669 | 12893 ft | 295 kts | 187° |
| 2026-04-27 15:41 | 31.32632 | 114.53474 | 12635 ft | 290 kts | 186° |
| 2026-04-27 15:41 | 31.30628 | 114.53283 | 12384 ft | 288 kts | 186° |
| 2026-04-27 15:41 | 31.28645 | 114.53021 | 12134 ft | 286 kts | 191° |
| 2026-04-27 15:41 | 31.26719 | 114.52508 | 11917 ft | 282 kts | 197° |
| 2026-04-27 15:42 | 31.24890 | 114.51761 | 11773 ft | 281 kts | 203° |
| 2026-04-27 15:42 | 31.23126 | 114.50777 | 11618 ft | 280 kts | 210° |
| 2026-04-27 15:42 | 31.21472 | 114.49576 | 11471 ft | 279 kts | 216° |
| 2026-04-27 15:42 | 31.19950 | 114.48180 | 11326 ft | 278 kts | 221° |
| 2026-04-27 15:43 | 31.18488 | 114.46711 | 11150 ft | 277 kts | 221° |
| 2026-04-27 15:43 | 31.17029 | 114.45254 | 10958 ft | 276 kts | 220° |
| 2026-04-27 15:43 | 31.15572 | 114.43798 | 10767 ft | 275 kts | 220° |
| 2026-04-27 15:43 | 31.14123 | 114.42348 | 10571 ft | 274 kts | 220° |
| 2026-04-27 15:44 | 31.12679 | 114.40906 | 10383 ft | 273 kts | 220° |
| 2026-04-27 15:44 | 31.11237 | 114.39468 | 10189 ft | 272 kts | 220° |
| 2026-04-27 15:44 | 31.09802 | 114.38037 | 10011 ft | 273 kts | 220° |
| 2026-04-27 15:44 | 31.08357 | 114.36596 | 9819 ft | 273 kts | 220° |
| 2026-04-27 15:45 | 31.06915 | 114.35155 | 9611 ft | 273 kts | 220° |
| 2026-04-27 15:45 | 31.05471 | 114.33714 | 9400 ft | 273 kts | 219° |
| 2026-04-27 15:45 | 31.04026 | 114.32282 | 9194 ft | 272 kts | 217° |
| 2026-04-27 15:45 | 31.02471 | 114.31040 | 8984 ft | 271 kts | 209° |
| 2026-04-27 15:46 | 31.00788 | 114.30093 | 8792 ft | 266 kts | 201° |
| 2026-04-27 15:46 | 30.99028 | 114.29445 | 8593 ft | 265 kts | 193° |
| 2026-04-27 15:46 | 30.97231 | 114.29097 | 8390 ft | 265 kts | 185° |
| 2026-04-27 15:46 | 30.95392 | 114.29050 | 8191 ft | 264 kts | 178° |
| 2026-04-27 15:47 | 30.93557 | 114.29147 | 7978 ft | 264 kts | 178° |
| 2026-04-27 15:47 | 30.91727 | 114.29241 | 7789 ft | 263 kts | 178° |
| 2026-04-27 15:47 | 30.89902 | 114.29332 | 7588 ft | 262 kts | 178° |
| 2026-04-27 15:47 | 30.88080 | 114.29421 | 7393 ft | 262 kts | 177° |
| 2026-04-27 15:48 | 30.86262 | 114.29511 | 7197 ft | 261 kts | 177° |
| 2026-04-27 15:48 | 30.84447 | 114.29601 | 7004 ft | 260 kts | 177° |
| 2026-04-27 15:48 | 30.82642 | 114.29690 | 6814 ft | 259 kts | 176° |
| 2026-04-27 15:49 | 30.79049 | 114.29866 | 6435 ft | 258 kts | 176° |
| 2026-04-27 15:49 | 30.77258 | 114.29952 | 6238 ft | 257 kts | 176° |
| 2026-04-27 15:49 | 30.75482 | 114.30039 | 6040 ft | 254 kts | 176° |
| 2026-04-27 15:49 | 30.73714 | 114.30010 | 5838 ft | 255 kts | 184° |
| 2026-04-27 15:50 | 30.71968 | 114.29658 | 5641 ft | 256 kts | 193° |
| 2026-04-27 15:50 | 30.70276 | 114.28986 | 5443 ft | 258 kts | 201° |
| 2026-04-27 15:50 | 30.68687 | 114.28007 | 5262 ft | 260 kts | 210° |
| 2026-04-27 15:50 | 30.67235 | 114.26727 | 5143 ft | 263 kts | 219° |
| 2026-04-27 15:51 | 30.65864 | 114.25312 | 5007 ft | 264 kts | 218° |
| 2026-04-27 15:51 | 30.64501 | 114.23914 | 4896 ft | 260 kts | 218° |
| 2026-04-27 15:51 | 30.63142 | 114.22526 | 4775 ft | 260 kts | 218° |
| 2026-04-27 15:51 | 30.61782 | 114.21141 | 4643 ft | 260 kts | 218° |
| 2026-04-27 15:52 | 30.60437 | 114.19769 | 4532 ft | 260 kts | 218° |
| 2026-04-27 15:52 | 30.59077 | 114.18385 | 4399 ft | 261 kts | 218° |
| 2026-04-27 15:52 | 30.57711 | 114.16995 | 4271 ft | 262 kts | 218° |
| 2026-04-27 15:52 | 30.56340 | 114.15598 | 4151 ft | 262 kts | 218° |
| 2026-04-27 15:53 | 30.54975 | 114.14205 | 4037 ft | 258 kts | 218° |
| 2026-04-27 15:53 | 30.53666 | 114.12867 | 4014 ft | 244 kts | 218° |
| 2026-04-27 15:53 | 30.52411 | 114.11584 | 4016 ft | 237 kts | 218° |
| 2026-04-27 15:53 | 30.51211 | 114.10358 | 4016 ft | 224 kts | 218° |
| 2026-04-27 15:54 | 30.50048 | 114.09174 | 4021 ft | 221 kts | 218° |
| 2026-04-27 15:54 | 30.48890 | 114.07999 | 4020 ft | 221 kts | 217° |
| 2026-04-27 15:54 | 30.47757 | 114.06786 | 4016 ft | 223 kts | 227° |
| 2026-04-27 15:54 | 30.47069 | 114.05155 | 4018 ft | 231 kts | 258° |
| 2026-04-27 15:55 | 30.47182 | 114.03313 | 4017 ft | 232 kts | 291° |
| 2026-04-27 15:55 | 30.47692 | 114.02263 | 4013 ft | 221 kts | 313° |
| 2026-04-27 15:55 | 30.49364 | 114.01068 | 4055 ft | 209 kts | 352° |
| 2026-04-27 15:55 | 30.50803 | 114.00918 | 4032 ft | 207 kts | 1° |
| 2026-04-27 15:56 | 30.52238 | 114.00820 | 4017 ft | 206 kts | 1° |
| 2026-04-27 15:56 | 30.53666 | 114.00719 | 4013 ft | 203 kts | 1° |
| 2026-04-27 15:56 | 30.55047 | 114.00795 | 4014 ft | 196 kts | 17° |
| 2026-04-27 15:56 | 30.56297 | 114.01348 | 4017 ft | 191 kts | 35° |
| 2026-04-27 15:57 | 30.57324 | 114.02273 | 4008 ft | 182 kts | 46° |
| 2026-04-27 15:57 | 30.58215 | 114.03174 | 4002 ft | 157 kts | 47° |
| 2026-04-27 15:57 | 30.58993 | 114.03963 | 3999 ft | 144 kts | 47° |
| 2026-04-27 15:57 | 30.59733 | 114.04719 | 4025 ft | 141 kts | 47° |
| 2026-04-27 15:58 | 30.60465 | 114.05466 | 3943 ft | 140 kts | 47° |
| 2026-04-27 15:58 | 30.61194 | 114.06209 | 3799 ft | 139 kts | 47° |
| 2026-04-27 15:58 | 30.61911 | 114.06940 | 3635 ft | 137 kts | 47° |
| 2026-04-27 15:58 | 30.62632 | 114.07674 | 3471 ft | 137 kts | 47° |
| 2026-04-27 15:59 | 30.63334 | 114.08390 | 3293 ft | 135 kts | 46° |
| 2026-04-27 15:59 | 30.64041 | 114.09110 | 3117 ft | 135 kts | 46° |
| 2026-04-27 15:59 | 30.64747 | 114.09830 | 2929 ft | 135 kts | 46° |
| 2026-04-27 15:59 | 30.65450 | 114.10547 | 2757 ft | 134 kts | 46° |
| 2026-04-27 16:00 | 30.66150 | 114.11260 | 2581 ft | 134 kts | 46° |
| 2026-04-27 16:00 | 30.66614 | 114.11733 | 2463 ft | 134 kts | 45° |
| 2026-04-27 16:00 | 30.67547 | 114.12686 | 2227 ft | 133 kts | 44° |
| 2026-04-27 16:00 | 30.68243 | 114.13395 | 2053 ft | 133 kts | 44° |
| 2026-04-27 16:01 | 30.68938 | 114.14105 | 1876 ft | 133 kts | 44° |
| 2026-04-27 16:01 | 30.69629 | 114.14810 | 1707 ft | 132 kts | 45° |
| 2026-04-27 16:01 | 30.70321 | 114.15516 | 1522 ft | 133 kts | 44° |
| 2026-04-27 16:01 | 30.71014 | 114.16224 | 1346 ft | 132 kts | 44° |
| 2026-04-27 16:02 | 30.71705 | 114.16930 | 1167 ft | 132 kts | 43° |
| 2026-04-27 16:02 | 30.72161 | 114.17396 | 1055 ft | 132 kts | 42° |
| 2026-04-27 16:02 | 30.73094 | 114.18349 | 798 ft | 134 kts | 42° |